createdAt,value
2023-03-02T00:00:47.770Z,89.37
2023-03-02T00:01:47.913Z,89.27
2023-03-02T00:02:48.043Z,89.06
2023-03-02T00:03:48.123Z,88.96
2023-03-02T00:04:47.498Z,89.02
2023-03-02T00:05:47.796Z,89.23
2023-03-02T00:06:48.026Z,89.02
2023-03-02T00:07:48.237Z,89.02
2023-03-02T00:08:48.242Z,88.96
2023-03-02T00:09:47.535Z,89.27
2023-03-02T00:10:47.751Z,89.17
2023-03-02T00:11:47.431Z,89.37
2023-03-02T00:12:48.327Z,89.44
2023-03-02T00:13:47.463Z,89.44
2023-03-02T00:14:47.576Z,89.23
2023-03-02T00:15:47.438Z,88.92
2023-03-02T00:16:48.196Z,88.60
2023-03-02T00:17:48.198Z,88.18
2023-03-02T00:18:47.390Z,87.83
2023-03-02T00:19:48.297Z,87.20
2023-03-02T00:20:47.381Z,86.88
2023-03-02T00:21:47.435Z,87.20
2023-03-02T00:22:47.416Z,86.99
2023-03-02T00:23:47.424Z,86.92
2023-03-02T00:24:47.350Z,86.82
2023-03-02T00:25:47.496Z,86.82
2023-03-02T00:26:47.530Z,87.09
2023-03-02T00:27:47.656Z,86.99
2023-03-02T00:28:47.341Z,86.46
2023-03-02T00:29:47.761Z,86.36
2023-03-02T00:30:47.718Z,86.46
2023-03-02T00:31:47.480Z,86.82
2023-03-02T00:32:47.762Z,86.88
2023-03-02T00:33:47.366Z,87.13
2023-03-02T00:34:47.901Z,86.99
2023-03-02T00:35:47.931Z,86.88
2023-03-02T00:36:47.800Z,86.71
2023-03-02T00:37:47.250Z,86.61
2023-03-02T00:38:48.136Z,86.71
2023-03-02T00:39:47.335Z,86.71
2023-03-02T00:40:47.341Z,86.71
2023-03-02T00:41:47.348Z,86.71
2023-03-02T00:42:47.958Z,86.76
2023-03-02T00:43:47.219Z,86.96
2023-03-02T00:44:47.197Z,87.38
2023-03-02T00:45:47.205Z,87.59
2023-03-02T00:46:47.320Z,87.74
2023-03-02T00:47:47.243Z,88.26
2023-03-02T00:48:47.189Z,88.79
2023-03-02T00:49:47.196Z,89.21
2023-03-02T00:50:47.217Z,89.17
2023-03-02T00:51:47.155Z,88.75
2023-03-02T00:52:47.225Z,88.79
2023-03-02T00:53:47.222Z,88.89
2023-03-02T00:54:47.318Z,89.10
2023-03-02T00:55:47.352Z,89.42
2023-03-02T00:56:47.367Z,89.94
2023-03-02T00:57:47.353Z,90.25
2023-03-02T00:58:47.121Z,90.47
2023-03-02T00:59:47.251Z,90.67
2023-03-02T01:00:47.133Z,90.36
2023-03-02T01:01:47.153Z,90.15
2023-03-02T01:02:47.352Z,90.25
2023-03-02T01:03:47.103Z,90.15
2023-03-02T01:04:47.306Z,90.15
2023-03-02T01:05:47.091Z,90.47
2023-03-02T01:06:47.324Z,90.57
2023-03-02T01:07:47.387Z,90.36
2023-03-02T01:08:47.134Z,90.25
2023-03-02T01:09:47.523Z,89.94
2023-03-02T01:10:47.136Z,89.73
2023-03-02T01:11:47.547Z,89.46
2023-03-02T01:12:47.036Z,89.46
2023-03-02T01:13:47.032Z,89.87
2023-03-02T01:14:47.054Z,90.19
2023-03-02T01:15:47.072Z,90.66
2023-03-02T01:16:47.044Z,91.18
2023-03-02T01:17:47.073Z,91.49
2023-03-02T01:18:47.002Z,91.39
2023-03-02T01:19:47.004Z,91.39
2023-03-02T01:20:46.993Z,91.39
2023-03-02T01:21:47.028Z,91.60
2023-03-02T01:22:47.081Z,91.60
2023-03-02T01:23:47.082Z,91.74
2023-03-02T01:24:47.086Z,92.16
2023-03-02T01:25:47.100Z,92.27
2023-03-02T01:26:47.100Z,92.16
2023-03-02T01:27:47.103Z,91.96
2023-03-02T01:28:47.623Z,91.74
2023-03-02T01:29:47.121Z,91.96
2023-03-02T01:30:47.129Z,92.06
2023-03-02T01:31:47.317Z,92.21
2023-03-02T01:32:47.142Z,92.21
2023-03-02T01:33:47.298Z,92.42
2023-03-02T01:34:47.310Z,92.63
2023-03-02T01:35:46.936Z,92.94
2023-03-02T01:36:47.312Z,93.22
2023-03-02T01:37:46.980Z,93.37
2023-03-02T01:38:46.928Z,93.26
2023-03-02T01:39:46.945Z,93.05
2023-03-02T01:40:47.064Z,92.84
2023-03-02T01:41:46.889Z,92.73
2023-03-02T01:42:46.952Z,92.84
2023-03-02T01:43:47.005Z,92.94
2023-03-02T01:44:47.164Z,93.15
2023-03-02T01:45:47.314Z,93.26
2023-03-02T01:46:47.174Z,93.26
2023-03-02T01:47:46.847Z,93.47
2023-03-02T01:48:46.824Z,93.57
2023-03-02T01:49:46.832Z,93.51
2023-03-02T01:50:46.832Z,93.51
2023-03-02T01:51:46.805Z,93.51
2023-03-02T01:52:46.812Z,93.83
2023-03-02T01:53:47.089Z,94.31
2023-03-02T01:54:47.084Z,94.73
2023-03-02T01:55:47.084Z,94.84
2023-03-02T01:56:47.076Z,94.73
2023-03-02T01:57:46.778Z,94.52
2023-03-02T01:58:46.839Z,94.21
2023-03-02T01:59:46.849Z,93.99
2023-03-02T02:00:47.346Z,93.79
2023-03-02T02:01:47.298Z,93.68
2023-03-02T02:02:46.779Z,93.68
2023-03-02T02:03:47.516Z,93.68
2023-03-02T02:04:46.716Z,93.51
2023-03-02T02:05:46.696Z,93.51
2023-03-02T02:06:47.309Z,93.62
2023-03-02T02:07:46.916Z,93.72
2023-03-02T02:08:47.117Z,93.72
2023-03-02T02:09:47.379Z,93.83
2023-03-02T02:10:46.666Z,94.14
2023-03-02T02:11:47.550Z,94.67
2023-03-02T02:12:47.190Z,95.09
2023-03-02T02:13:47.725Z,95.40
2023-03-02T02:14:47.633Z,95.62
2023-03-02T02:15:46.753Z,95.62
2023-03-02T02:16:47.018Z,95.72
2023-03-02T02:19:13.578Z,95.72
2023-03-02T02:20:12.605Z,95.62
2023-03-02T02:21:12.595Z,95.62
2023-03-02T02:22:12.568Z,95.83
2023-03-02T02:23:12.612Z,95.83
2023-03-02T02:24:12.556Z,95.83
2023-03-02T02:25:12.555Z,95.93
2023-03-02T02:26:12.544Z,95.93
2023-03-02T02:27:12.547Z,96.03
2023-03-02T02:28:12.566Z,96.03
2023-03-02T02:29:12.547Z,95.93
2023-03-02T02:30:13.595Z,95.93
2023-03-02T02:31:13.455Z,95.93
2023-03-02T02:32:12.727Z,95.93
2023-03-02T02:33:13.558Z,95.72
2023-03-02T02:34:12.549Z,95.62
2023-03-02T02:35:12.559Z,95.62
2023-03-02T02:36:12.537Z,95.40
2023-03-02T02:37:13.389Z,95.40
2023-03-02T02:38:12.523Z,95.40
2023-03-02T02:39:13.460Z,95.40
2023-03-02T02:40:12.634Z,95.40
2023-03-02T02:41:12.512Z,95.30
2023-03-02T02:42:12.499Z,95.24
2023-03-02T02:43:12.484Z,95.13
2023-03-02T02:44:13.232Z,95.13
2023-03-02T02:45:13.391Z,95.03
2023-03-02T02:46:12.512Z,94.82
2023-03-02T02:47:12.461Z,94.82
2023-03-02T02:48:13.356Z,94.92
2023-03-02T02:49:12.447Z,95.13
2023-03-02T02:50:13.420Z,95.45
2023-03-02T02:51:12.417Z,95.55
2023-03-02T02:52:13.226Z,95.30
2023-03-02T02:53:13.393Z,95.09
2023-03-02T02:54:13.287Z,94.88
2023-03-02T02:55:13.337Z,94.56
2023-03-02T02:56:12.446Z,94.14
2023-03-02T02:57:12.665Z,93.72
2023-03-02T02:58:12.445Z,93.83
2023-03-02T02:59:12.454Z,93.93
2023-03-02T03:00:12.495Z,93.83
2023-03-02T03:01:12.733Z,93.72
2023-03-02T03:02:13.295Z,93.62
2023-03-02T03:03:12.443Z,93.62
2023-03-02T03:04:12.738Z,93.83
2023-03-02T03:05:12.383Z,94.04
2023-03-02T03:06:12.731Z,94.18
2023-03-02T03:07:12.352Z,94.18
2023-03-02T03:08:13.223Z,94.08
2023-03-02T03:09:13.136Z,94.18
2023-03-02T03:10:12.330Z,94.56
2023-03-02T03:11:12.531Z,94.67
2023-03-02T03:12:13.729Z,94.67
2023-03-02T03:13:13.263Z,94.67
2023-03-02T03:14:12.301Z,94.78
2023-03-02T03:15:13.098Z,94.88
2023-03-02T03:16:13.209Z,94.78
2023-03-02T03:17:12.543Z,94.56
2023-03-02T03:18:12.395Z,94.46
2023-03-02T03:19:12.793Z,94.50
2023-03-02T03:20:13.093Z,94.46
2023-03-02T03:21:13.002Z,94.46
2023-03-02T03:22:12.241Z,94.35
2023-03-02T03:23:13.154Z,94.35
2023-03-02T03:24:12.249Z,94.35
2023-03-02T03:25:12.229Z,94.35
2023-03-02T03:26:13.032Z,94.25
2023-03-02T03:27:12.272Z,94.10
2023-03-02T03:28:12.238Z,93.93
2023-03-02T03:29:13.643Z,93.83
2023-03-02T03:30:13.178Z,93.83
2023-03-02T03:31:12.233Z,94.04
2023-03-02T03:32:12.182Z,94.14
2023-03-02T03:33:12.156Z,94.04
2023-03-02T03:34:13.027Z,93.93
2023-03-02T03:35:12.176Z,93.72
2023-03-02T03:36:12.175Z,93.51
2023-03-02T03:37:12.126Z,93.51
2023-03-02T03:38:12.140Z,93.62
2023-03-02T03:39:13.065Z,93.62
2023-03-02T03:40:12.356Z,93.51
2023-03-02T03:41:12.335Z,93.62
2023-03-02T03:42:12.360Z,93.51
2023-03-02T03:43:12.090Z,93.51
2023-03-02T03:44:12.141Z,93.41
2023-03-02T03:45:12.082Z,93.24
2023-03-02T03:46:12.690Z,93.13
2023-03-02T03:47:12.190Z,93.13
2023-03-02T03:48:12.959Z,93.24
2023-03-02T03:49:12.600Z,93.34
2023-03-02T03:50:12.037Z,93.55
2023-03-02T03:51:12.042Z,93.87
2023-03-02T03:52:12.232Z,94.08
2023-03-02T03:53:12.023Z,94.08
2023-03-02T03:54:12.636Z,93.98
2023-03-02T03:55:12.059Z,93.76
2023-03-02T03:56:12.014Z,93.76
2023-03-02T03:57:12.655Z,93.87
2023-03-02T03:58:13.055Z,93.98
2023-03-02T03:59:12.650Z,94.08
2023-03-02T04:00:12.688Z,94.29
2023-03-02T04:01:12.033Z,94.40
2023-03-02T04:02:12.728Z,94.29
2023-03-02T04:03:12.801Z,94.29
2023-03-02T04:04:12.273Z,94.29
2023-03-02T04:05:11.977Z,94.40
2023-03-02T04:06:12.421Z,94.60
2023-03-02T04:07:11.941Z,94.82
2023-03-02T04:08:11.928Z,94.92
2023-03-02T04:09:11.933Z,95.03
2023-03-02T04:10:11.945Z,95.13
2023-03-02T04:11:12.137Z,95.24
2023-03-02T04:12:12.709Z,95.20
2023-03-02T04:13:11.919Z,95.20
2023-03-02T04:14:11.966Z,95.03
2023-03-02T04:15:12.419Z,94.92
2023-03-02T04:16:11.927Z,94.71
2023-03-02T04:17:11.925Z,94.50
2023-03-02T04:18:11.972Z,94.29
2023-03-02T04:19:11.890Z,94.08
2023-03-02T04:20:12.699Z,94.08
2023-03-02T04:21:12.864Z,94.34
2023-03-02T04:22:12.778Z,94.44
2023-03-02T04:23:11.868Z,94.54
2023-03-02T04:24:12.830Z,94.65
2023-03-02T04:25:11.892Z,94.65
2023-03-02T04:26:12.227Z,94.76
2023-03-02T04:27:11.897Z,94.96
2023-03-02T04:28:12.706Z,95.07
2023-03-02T04:29:11.841Z,95.18
2023-03-02T04:30:11.823Z,95.28
2023-03-02T04:31:12.691Z,95.28
2023-03-02T04:32:13.284Z,95.18
2023-03-02T04:33:11.823Z,95.22
2023-03-02T04:34:12.646Z,95.18
2023-03-02T04:35:12.555Z,95.22
2023-03-02T04:36:12.309Z,95.32
2023-03-02T04:37:12.190Z,95.70
2023-03-02T04:38:11.760Z,95.91
2023-03-02T04:39:11.806Z,96.02
2023-03-02T04:40:11.770Z,95.91
2023-03-02T04:41:11.779Z,95.81
2023-03-02T04:42:12.648Z,95.66
2023-03-02T04:43:12.556Z,95.45
2023-03-02T04:44:12.723Z,95.34
2023-03-02T04:45:12.153Z,95.24
2023-03-02T04:46:12.539Z,95.34
2023-03-02T04:47:11.776Z,95.34
2023-03-02T04:48:12.375Z,95.13
2023-03-02T04:49:12.140Z,94.92
2023-03-02T04:50:11.718Z,94.67
2023-03-02T04:51:12.604Z,94.46
2023-03-02T04:52:12.458Z,94.56
2023-03-02T04:53:12.276Z,94.04
2023-03-02T04:54:11.665Z,93.57
2023-03-02T04:55:12.067Z,93.15
2023-03-02T04:56:11.675Z,92.94
2023-03-02T04:57:11.864Z,92.94
2023-03-02T04:58:11.640Z,92.84
2023-03-02T04:59:11.655Z,92.84
2023-03-02T05:00:12.643Z,92.52
2023-03-02T05:01:12.625Z,92.10
2023-03-02T05:02:11.804Z,91.78
2023-03-02T05:03:11.872Z,91.58
2023-03-02T05:04:12.652Z,91.36
2023-03-02T05:05:12.491Z,91.30
2023-03-02T05:06:12.391Z,91.41
2023-03-02T05:07:11.629Z,91.72
2023-03-02T05:08:12.127Z,92.04
2023-03-02T05:09:11.713Z,92.19
2023-03-02T05:10:11.697Z,92.50
2023-03-02T05:11:12.426Z,92.82
2023-03-02T05:12:11.571Z,93.03
2023-03-02T05:13:11.708Z,93.34
2023-03-02T05:14:11.546Z,93.55
2023-03-02T05:15:11.796Z,93.70
2023-03-02T05:16:12.524Z,94.02
2023-03-02T05:17:12.487Z,94.23
2023-03-02T05:18:11.749Z,94.23
2023-03-02T05:19:12.340Z,94.23
2023-03-02T05:20:12.330Z,94.12
2023-03-02T05:21:12.500Z,94.06
2023-03-02T05:22:12.393Z,94.17
2023-03-02T05:23:11.537Z,94.38
2023-03-02T05:24:12.489Z,94.59
2023-03-02T05:25:11.720Z,94.59
2023-03-02T05:26:12.268Z,94.48
2023-03-02T05:27:12.423Z,94.59
2023-03-02T05:28:12.422Z,94.84
2023-03-02T05:29:11.746Z,95.05
2023-03-02T05:30:11.468Z,95.26
2023-03-02T05:31:11.866Z,95.47
2023-03-02T05:32:12.541Z,95.57
2023-03-02T05:33:12.368Z,95.79
2023-03-02T05:34:11.458Z,96.11
2023-03-02T05:35:11.432Z,96.42
2023-03-02T05:36:12.329Z,96.80
2023-03-02T05:37:11.858Z,96.69
2023-03-02T05:38:11.470Z,96.37
2023-03-02T05:39:11.437Z,96.12
2023-03-02T05:40:12.207Z,95.91
2023-03-02T05:41:11.788Z,95.60
2023-03-02T05:42:12.268Z,95.28
2023-03-02T05:43:11.918Z,95.03
2023-03-02T05:44:11.713Z,94.76
2023-03-02T05:45:12.248Z,94.54
2023-03-02T05:46:11.398Z,94.34
2023-03-02T05:47:11.899Z,94.34
2023-03-02T05:48:11.326Z,94.34
2023-03-02T05:49:12.368Z,94.23
2023-03-02T05:50:12.263Z,94.23
2023-03-02T05:51:11.996Z,94.12
2023-03-02T05:52:11.972Z,94.02
2023-03-02T05:53:11.913Z,94.23
2023-03-02T05:54:11.309Z,94.27
2023-03-02T05:55:12.309Z,94.48
2023-03-02T05:56:12.753Z,94.69
2023-03-02T05:57:11.309Z,95.11
2023-03-02T05:58:11.290Z,95.39
2023-03-02T05:59:12.173Z,95.18
2023-03-02T06:00:12.327Z,95.07
2023-03-02T06:01:13.534Z,94.96
2023-03-02T06:02:11.303Z,95.07
2023-03-02T06:03:12.111Z,95.18
2023-03-02T06:04:11.266Z,95.07
2023-03-02T06:05:11.256Z,95.07
2023-03-02T06:06:11.309Z,94.92
2023-03-02T06:07:11.326Z,94.71
2023-03-02T06:08:11.335Z,94.50
2023-03-02T06:09:11.342Z,94.29
2023-03-02T06:10:11.200Z,94.18
2023-03-02T06:11:12.221Z,94.08
2023-03-02T06:12:11.278Z,93.87
2023-03-02T06:13:11.200Z,93.87
2023-03-02T06:14:11.181Z,93.76
2023-03-02T06:15:11.174Z,93.66
2023-03-02T06:16:12.084Z,93.66
2023-03-02T06:17:11.322Z,93.45
2023-03-02T06:18:11.148Z,93.55
2023-03-02T06:19:11.214Z,93.55
2023-03-02T06:20:11.546Z,93.55
2023-03-02T06:21:11.168Z,93.45
2023-03-02T06:22:11.138Z,93.41
2023-03-02T06:23:11.129Z,93.51
2023-03-02T06:24:11.821Z,93.51
2023-03-02T06:25:11.219Z,93.51
2023-03-02T06:26:11.222Z,93.30
2023-03-02T06:27:11.097Z,93.09
2023-03-02T06:28:11.096Z,92.77
2023-03-02T06:29:11.096Z,92.77
2023-03-02T06:30:11.133Z,92.67
2023-03-02T06:31:11.919Z,92.77
2023-03-02T06:32:11.216Z,92.88
2023-03-02T06:33:11.189Z,92.84
2023-03-02T06:34:11.045Z,92.73
2023-03-02T06:35:11.117Z,92.63
2023-03-02T06:36:11.270Z,92.42
2023-03-02T06:37:11.870Z,92.10
2023-03-02T06:38:11.242Z,91.89
2023-03-02T06:39:11.917Z,91.89
2023-03-02T06:40:11.254Z,91.89
2023-03-02T06:41:11.024Z,91.85
2023-03-02T06:42:10.992Z,91.64
2023-03-02T06:43:11.078Z,91.43
2023-03-02T06:44:11.010Z,91.11
2023-03-02T06:45:11.023Z,90.91
2023-03-02T06:46:11.343Z,90.69
2023-03-02T06:47:11.001Z,90.69
2023-03-02T06:48:11.004Z,90.34
2023-03-02T06:49:13.370Z,90.02
2023-03-02T06:50:11.014Z,89.81
2023-03-02T06:51:11.039Z,89.60
2023-03-02T06:52:10.987Z,89.39
2023-03-02T06:53:11.866Z,89.29
2023-03-02T06:54:10.956Z,89.07
2023-03-02T06:55:11.910Z,88.93
2023-03-02T06:56:11.050Z,88.62
2023-03-02T06:57:11.719Z,87.99
2023-03-02T06:58:10.964Z,87.74
2023-03-02T06:59:11.242Z,87.42
2023-03-02T07:00:11.687Z,87.21
2023-03-02T07:01:11.457Z,87.00
2023-03-02T07:02:10.885Z,86.69
2023-03-02T07:03:10.925Z,86.69
2023-03-02T07:04:10.892Z,86.76
2023-03-02T07:05:10.913Z,86.86
2023-03-02T07:06:11.881Z,86.65
2023-03-02T07:07:10.972Z,86.33
2023-03-02T07:08:10.872Z,86.08
2023-03-02T07:09:10.861Z,85.91
2023-03-02T07:10:10.889Z,85.88
2023-03-02T07:11:10.870Z,85.77
2023-03-02T07:12:10.833Z,85.56
2023-03-02T07:13:10.905Z,85.46
2023-03-02T07:14:10.799Z,85.35
2023-03-02T07:15:11.017Z,85.25
2023-03-02T07:16:10.939Z,85.10
2023-03-02T07:17:10.830Z,85.00
2023-03-02T07:18:11.755Z,85.00
2023-03-02T07:19:10.905Z,84.79
2023-03-02T07:20:10.920Z,84.27
2023-03-02T07:21:10.830Z,84.01
2023-03-02T07:22:10.937Z,83.81
2023-03-02T07:23:10.758Z,83.81
2023-03-02T07:24:10.992Z,83.81
2023-03-02T07:25:11.008Z,83.81
2023-03-02T07:26:11.773Z,83.81
2023-03-02T07:27:11.688Z,83.91
2023-03-02T07:28:10.766Z,83.66
2023-03-02T07:29:10.773Z,83.14
2023-03-02T07:30:11.623Z,83.03
2023-03-02T07:31:10.770Z,82.93
2023-03-02T07:32:12.540Z,82.82
2023-03-02T07:33:11.601Z,82.68
2023-03-02T07:34:10.735Z,82.26
2023-03-02T07:35:11.668Z,81.70
2023-03-02T07:36:10.722Z,81.29
2023-03-02T07:37:10.729Z,81.07
2023-03-02T07:38:11.632Z,80.93
2023-03-02T07:39:11.087Z,80.52
2023-03-02T07:40:11.451Z,80.31
2023-03-02T07:41:11.588Z,79.96
2023-03-02T07:42:11.488Z,79.96
2023-03-02T07:43:10.668Z,79.96
2023-03-02T07:44:11.559Z,79.54
2023-03-02T07:45:11.466Z,79.19
2023-03-02T07:46:10.760Z,79.08
2023-03-02T07:47:10.619Z,78.88
2023-03-02T07:48:10.674Z,78.56
2023-03-02T07:49:12.048Z,78.11
2023-03-02T07:50:10.619Z,77.80
2023-03-02T07:51:10.686Z,77.38
2023-03-02T07:52:10.588Z,77.17
2023-03-02T07:53:11.466Z,76.61
2023-03-02T07:54:11.367Z,76.61
2023-03-02T07:55:10.586Z,76.51
2023-03-02T07:56:11.428Z,75.98
2023-03-02T07:57:10.580Z,75.88
2023-03-02T07:58:10.558Z,75.88
2023-03-02T07:59:10.677Z,75.74
2023-03-02T08:00:11.978Z,75.01
2023-03-02T08:01:10.758Z,74.91
2023-03-02T08:02:10.560Z,74.49
2023-03-02T08:03:10.863Z,74.35
2023-03-02T08:04:11.431Z,74.25
2023-03-02T08:05:10.524Z,73.83
2023-03-02T08:06:10.699Z,73.69
2023-03-02T08:07:11.422Z,73.62
2023-03-02T08:08:11.303Z,73.27
2023-03-02T08:09:10.499Z,73.17
2023-03-02T08:10:11.390Z,73.07
2023-03-02T08:11:10.628Z,72.86
2023-03-02T08:12:11.447Z,72.65
2023-03-02T08:13:10.466Z,72.75
2023-03-02T08:14:10.502Z,72.96
2023-03-02T08:15:11.406Z,72.72
2023-03-02T08:16:11.340Z,72.30
2023-03-02T08:17:10.470Z,72.41
2023-03-02T08:18:11.376Z,72.30
2023-03-02T08:19:10.561Z,72.27
2023-03-02T08:20:10.574Z,72.17
2023-03-02T08:21:10.382Z,72.48
2023-03-02T08:22:10.450Z,72.69
2023-03-02T08:23:10.390Z,72.69
2023-03-02T08:24:10.370Z,72.38
2023-03-02T08:25:10.399Z,72.58
2023-03-02T08:26:13.105Z,72.34
2023-03-02T08:27:10.379Z,72.45
2023-03-02T08:28:10.349Z,72.45
2023-03-02T08:29:10.346Z,72.45
2023-03-02T08:30:10.336Z,72.00
2023-03-02T08:31:10.403Z,71.17
2023-03-02T08:32:10.523Z,71.27
2023-03-02T08:33:11.220Z,71.13
2023-03-02T08:34:10.340Z,71.13
2023-03-02T08:35:11.279Z,70.61
2023-03-02T08:36:11.242Z,70.40
2023-03-02T08:37:10.324Z,70.30
2023-03-02T08:38:10.387Z,70.20
2023-03-02T08:39:10.382Z,69.96
2023-03-02T08:40:11.048Z,69.96
2023-03-02T08:41:10.504Z,69.54
2023-03-02T08:42:10.508Z,69.54
2023-03-02T08:43:10.264Z,69.51
2023-03-02T08:44:11.175Z,69.40
2023-03-02T08:45:10.259Z,68.78
2023-03-02T08:46:10.375Z,68.88
2023-03-02T08:47:11.145Z,68.88
2023-03-02T08:48:11.049Z,68.99
2023-03-02T08:49:11.210Z,69.09
2023-03-02T08:50:10.273Z,68.88
2023-03-02T08:51:10.261Z,68.68
2023-03-02T08:52:11.182Z,68.44
2023-03-02T08:53:10.225Z,68.23
2023-03-02T08:54:10.232Z,67.61
2023-03-02T08:55:11.182Z,67.79
2023-03-02T08:56:10.409Z,67.27
2023-03-02T08:57:10.949Z,67.27
2023-03-02T08:58:11.141Z,66.54
2023-03-02T08:59:11.018Z,66.61
2023-03-02T09:00:10.231Z,66.09
2023-03-02T09:01:10.208Z,66.72
2023-03-02T09:02:10.993Z,66.06
2023-03-02T09:03:10.640Z,65.34
2023-03-02T09:04:10.204Z,65.44
2023-03-02T09:05:10.946Z,65.72
2023-03-02T09:06:11.102Z,65.93
2023-03-02T09:07:11.081Z,65.93
2023-03-02T09:08:10.155Z,65.62
2023-03-02T09:09:10.093Z,65.69
2023-03-02T09:10:10.981Z,65.41
2023-03-02T09:11:10.895Z,64.79
2023-03-02T09:12:10.529Z,63.72
2023-03-02T09:14:36.014Z,64.45
2023-03-02T09:15:36.014Z,64.55
2023-03-02T09:16:36.041Z,65.07
2023-03-02T09:17:35.993Z,64.76
2023-03-02T09:18:36.754Z,64.52
2023-03-02T09:19:36.013Z,64.62
2023-03-02T09:20:35.960Z,63.69
2023-03-02T09:21:36.187Z,64.11
2023-03-02T09:22:36.009Z,63.56
2023-03-02T09:23:35.987Z,63.46
2023-03-02T09:24:35.988Z,63.22
2023-03-02T09:25:36.089Z,63.22
2023-03-02T09:26:36.116Z,63.22
2023-03-02T09:27:36.102Z,63.01
2023-03-02T09:28:36.103Z,62.91
2023-03-02T09:29:36.115Z,63.09
2023-03-02T09:30:36.140Z,62.08
2023-03-02T09:31:36.583Z,61.98
2023-03-02T09:32:36.131Z,61.95
2023-03-02T09:33:36.134Z,61.64
2023-03-02T09:34:36.142Z,61.64
2023-03-02T09:35:35.872Z,61.30
2023-03-02T09:36:35.861Z,60.99
2023-03-02T09:37:36.209Z,60.16
2023-03-02T09:38:36.177Z,60.16
2023-03-02T09:39:35.846Z,60.03
2023-03-02T09:40:36.292Z,59.93
2023-03-02T09:41:36.155Z,59.62
2023-03-02T09:42:43.915Z,59.93
2023-03-02T09:43:36.345Z,60.55
2023-03-02T09:44:36.113Z,60.44
2023-03-02T09:45:36.050Z,60.24
2023-03-02T09:46:36.333Z,60.21
2023-03-02T09:47:36.297Z,59.80
2023-03-02T09:48:35.831Z,59.39
2023-03-02T09:49:35.850Z,58.66
2023-03-02T09:50:35.855Z,59.18
2023-03-02T09:51:35.863Z,59.28
2023-03-02T09:52:35.972Z,59.49
2023-03-02T09:53:35.767Z,59.49
2023-03-02T09:54:36.041Z,58.87
2023-03-02T09:55:35.988Z,57.94
2023-03-02T09:56:36.107Z,58.35
2023-03-02T09:57:36.215Z,58.53
2023-03-02T09:58:36.217Z,58.12
2023-03-02T09:59:35.717Z,57.91
2023-03-02T10:00:35.775Z,57.81
2023-03-02T10:01:35.823Z,58.30
2023-03-02T10:02:35.828Z,57.78
2023-03-02T10:03:35.839Z,57.45
2023-03-02T10:04:35.975Z,57.03
2023-03-02T10:05:35.941Z,57.24
2023-03-02T10:06:36.062Z,56.93
2023-03-02T10:07:35.670Z,56.80
2023-03-02T10:08:36.073Z,55.90
2023-03-02T10:09:35.665Z,57.21
2023-03-02T10:10:36.247Z,56.39
2023-03-02T10:11:36.302Z,56.08
2023-03-02T10:12:35.642Z,56.49
2023-03-02T10:13:36.352Z,55.33
2023-03-02T10:14:36.322Z,55.46
2023-03-02T10:15:35.914Z,55.57
2023-03-02T10:16:36.253Z,55.26
2023-03-02T10:17:35.799Z,55.66
2023-03-02T10:18:36.513Z,55.05
2023-03-02T10:19:36.388Z,54.94
2023-03-02T10:20:35.570Z,54.94
2023-03-02T10:21:35.750Z,55.46
2023-03-02T10:22:36.620Z,55.57
2023-03-02T10:23:36.519Z,55.54
2023-03-02T10:24:35.558Z,54.69
2023-03-02T10:25:35.779Z,54.69
2023-03-02T10:26:36.186Z,54.48
2023-03-02T10:27:36.432Z,53.86
2023-03-02T10:28:36.527Z,54.79
2023-03-02T10:29:35.601Z,54.66
2023-03-02T10:30:36.043Z,54.46
2023-03-02T10:31:35.808Z,54.56
2023-03-02T10:32:36.187Z,54.74
2023-03-02T10:33:35.488Z,53.71
2023-03-02T10:34:35.456Z,54.33
2023-03-02T10:35:35.489Z,54.33
2023-03-02T10:36:35.737Z,54.43
2023-03-02T10:37:35.563Z,53.71
2023-03-02T10:38:35.456Z,53.81
2023-03-02T10:39:35.533Z,53.07
2023-03-02T10:40:35.674Z,52.43
2023-03-02T10:41:35.685Z,52.33
2023-03-02T10:42:35.690Z,52.40
2023-03-02T10:43:35.500Z,51.45
2023-03-02T10:44:35.494Z,50.48
2023-03-02T10:45:35.513Z,49.33
2023-03-02T10:46:35.929Z,49.41
2023-03-02T10:47:35.524Z,49.90
2023-03-02T10:48:40.908Z,48.75
2023-03-02T10:49:35.736Z,47.73
2023-03-02T10:50:35.410Z,47.73
2023-03-02T10:51:35.569Z,47.42
2023-03-02T10:52:35.422Z,47.19
2023-03-02T10:53:35.376Z,46.45
2023-03-02T10:54:35.360Z,46.86
2023-03-02T10:55:35.476Z,46.66
2023-03-02T10:56:35.694Z,46.62
2023-03-02T10:57:35.614Z,46.39
2023-03-02T10:58:35.600Z,45.98
2023-03-02T10:59:35.610Z,45.65
2023-03-02T11:00:35.461Z,45.02
2023-03-02T11:01:35.708Z,44.94
2023-03-02T11:02:35.706Z,44.51
2023-03-02T11:03:35.690Z,43.98
2023-03-02T11:04:35.784Z,44.08
2023-03-02T11:05:35.249Z,43.49
2023-03-02T11:06:35.432Z,43.79
2023-03-02T11:07:35.238Z,44.81
2023-03-02T11:08:35.227Z,43.88
2023-03-02T11:09:35.274Z,44.16
2023-03-02T11:10:35.249Z,43.65
2023-03-02T11:11:35.713Z,42.94
2023-03-02T11:12:35.219Z,43.24
2023-03-02T11:13:35.318Z,43.16
2023-03-02T11:14:35.317Z,43.79
2023-03-02T11:15:35.469Z,44.43
2023-03-02T11:16:35.325Z,44.53
2023-03-02T11:17:35.336Z,45.73
2023-03-02T11:18:35.352Z,44.28
2023-03-02T11:19:35.353Z,43.57
2023-03-02T11:20:35.376Z,43.38
2023-03-02T11:21:35.630Z,44.43
2023-03-02T11:22:35.406Z,44.76
2023-03-02T11:23:35.415Z,44.43
2023-03-02T11:24:35.153Z,45.02
2023-03-02T11:25:35.136Z,44.49
2023-03-02T11:26:35.227Z,43.35
2023-03-02T11:27:35.384Z,43.23
2023-03-02T11:28:35.486Z,43.43
2023-03-02T11:29:35.510Z,42.53
2023-03-02T11:30:35.066Z,42.73
2023-03-02T11:31:35.631Z,43.04
2023-03-02T11:32:35.129Z,42.59
2023-03-02T11:33:35.170Z,43.00
2023-03-02T11:34:35.076Z,42.59
2023-03-02T11:35:35.091Z,42.71
2023-03-02T11:36:35.049Z,43.10
2023-03-02T11:37:35.025Z,42.47
2023-03-02T11:38:35.081Z,41.89
2023-03-02T11:39:35.148Z,42.80
2023-03-02T11:40:35.159Z,42.98
2023-03-02T11:41:35.233Z,42.68
2023-03-02T11:42:35.004Z,42.06
2023-03-02T11:43:35.321Z,42.04
2023-03-02T11:44:35.302Z,41.61
2023-03-02T11:45:35.302Z,41.29
2023-03-02T11:46:35.407Z,40.60
2023-03-02T11:47:34.974Z,41.43
2023-03-02T11:48:34.968Z,41.02
2023-03-02T11:49:34.986Z,41.63
2023-03-02T11:50:34.953Z,41.82
2023-03-02T11:51:35.364Z,41.00
2023-03-02T11:52:35.151Z,41.53
2023-03-02T11:53:34.972Z,41.75
2023-03-02T11:54:35.219Z,42.16
2023-03-02T11:55:34.902Z,41.63
2023-03-02T11:56:35.373Z,41.33
2023-03-02T11:57:36.273Z,42.88
2023-03-02T11:58:35.419Z,42.77
2023-03-02T11:59:35.438Z,42.45
2023-03-02T12:00:34.951Z,42.16
2023-03-02T12:01:35.675Z,42.35
2023-03-02T12:02:35.411Z,42.10
2023-03-02T12:03:35.014Z,43.20
2023-03-02T12:04:35.016Z,42.27
2023-03-02T12:05:34.883Z,42.14
2023-03-02T12:06:35.677Z,41.82
2023-03-02T12:07:35.491Z,41.11
2023-03-02T12:08:35.453Z,41.74
2023-03-02T12:09:35.517Z,41.63
2023-03-02T12:10:35.511Z,42.06
2023-03-02T12:11:34.820Z,42.16
2023-03-02T12:12:35.085Z,42.18
2023-03-02T12:13:35.539Z,42.92
2023-03-02T12:14:34.880Z,43.35
2023-03-02T12:15:35.198Z,44.94
2023-03-02T12:16:36.171Z,45.57
2023-03-02T12:17:34.775Z,46.31
2023-03-02T12:18:35.529Z,46.86
2023-03-02T12:19:35.624Z,48.32
2023-03-02T12:20:34.921Z,48.52
2023-03-02T12:21:35.541Z,48.03
2023-03-02T12:22:34.750Z,49.08
2023-03-02T12:23:34.741Z,48.67
2023-03-02T12:24:34.745Z,48.59
2023-03-02T12:25:34.750Z,49.00
2023-03-02T12:26:35.238Z,49.85
2023-03-02T12:27:34.820Z,49.64
2023-03-02T12:28:35.046Z,49.64
2023-03-02T12:29:34.992Z,50.15
2023-03-02T12:30:35.002Z,50.15
2023-03-02T12:31:35.065Z,50.26
2023-03-02T12:32:34.719Z,50.77
2023-03-02T12:33:34.663Z,51.18
2023-03-02T12:34:34.844Z,51.56
2023-03-02T12:35:34.830Z,51.26
2023-03-02T12:36:35.143Z,50.64
2023-03-02T12:37:34.659Z,50.44
2023-03-02T12:38:34.945Z,50.36
2023-03-02T12:39:34.603Z,51.36
2023-03-02T12:40:34.654Z,50.95
2023-03-02T12:41:35.090Z,51.15
2023-03-02T12:42:34.669Z,51.15
2023-03-02T12:43:35.321Z,51.77
2023-03-02T12:44:34.950Z,51.39
2023-03-02T12:45:35.330Z,51.28
2023-03-02T12:46:35.798Z,50.87
2023-03-02T12:47:34.581Z,51.90
2023-03-02T12:48:34.526Z,52.20
2023-03-02T12:49:34.582Z,52.20
2023-03-02T12:50:34.566Z,52.51
2023-03-02T12:51:34.629Z,52.49
2023-03-02T12:52:34.613Z,51.87
2023-03-02T12:53:34.572Z,52.39
2023-03-02T12:54:34.554Z,52.69
2023-03-02T12:55:34.579Z,52.39